Goroka Airport


Codes: AYGA/GKA
Name: Goroka Airport
City: Goronka
Country: Papua New Guinea
Elevation: 5282 ft.
Wikipedia:

Photos at Goroka Airport


   Photos courtesy of SpottingLog. You can add your own sightings and photos by signing up for a free trial today.



No photos found.

Weather at Goroka Airport


Time (UTC)DescriptionTempratureWindCloud coverageVisibilityPressureHumidity
17-Jun-2024 06:00Light Rain22°C2 mph, NE53%10000m1011hPa80%
17-Jun-2024 09:00Light Rain20°C2 mph, S53%10000m1012hPa86%
17-Jun-2024 12:00Broken Clouds18°C2 mph, SW65%10000m1015hPa92%
17-Jun-2024 15:00Light Rain17°C0 mph, S96%6885m1016hPa97%
17-Jun-2024 18:00Overcast Clouds16°C2 mph, S96%10000m1015hPa98%
17-Jun-2024 21:00Overcast Clouds15°C2 mph, S92%10000m1016hPa97%
18-Jun-2024 00:00Broken Clouds22°C2 mph, SE72%10000m1015hPa66%
18-Jun-2024 03:00Few Clouds26°C2 mph, E18%10000m1011hPa50%
18-Jun-2024 06:00Light Rain22°C7 mph, NE35%10000m1010hPa72%
18-Jun-2024 09:00Light Rain18°C2 mph, NE68%10000m1014hPa94%
18-Jun-2024 12:00Broken Clouds17°C0 mph, SE74%10000m1016hPa96%
18-Jun-2024 15:00Overcast Clouds17°C0 mph, SE93%10000m1015hPa96%
18-Jun-2024 18:00Light Rain16°C0 mph, S88%10000m1014hPa96%
18-Jun-2024 21:00Overcast Clouds16°C2 mph, SW100%7404m1016hPa96%
19-Jun-2024 00:00Overcast Clouds21°C2 mph, SW100%10000m1015hPa72%
19-Jun-2024 03:00Light Rain24°C2 mph, E100%10000m1011hPa59%
19-Jun-2024 06:00Light Rain20°C2 mph, NE100%10000m1011hPa85%
19-Jun-2024 09:00Light Rain17°C2 mph, NE100%3520m1013hPa98%
19-Jun-2024 12:00Light Rain16°C2 mph, S100%10000m1015hPa99%
19-Jun-2024 15:00Light Rain16°C2 mph, SW100%6933m1014hPa99%
19-Jun-2024 18:00Overcast Clouds15°C2 mph, SW100%9025m1014hPa98%
19-Jun-2024 21:00Overcast Clouds15°C2 mph, SW100%10000m1015hPa98%
20-Jun-2024 00:00Overcast Clouds20°C4 mph, SW100%10000m1015hPa77%
20-Jun-2024 03:00Light Rain23°C2 mph, SE77%10000m1011hPa64%
20-Jun-2024 06:00Light Rain19°C2 mph, E86%8544m1011hPa93%
20-Jun-2024 09:00Light Rain17°C2 mph, E92%10000m1014hPa97%
20-Jun-2024 12:00Light Rain16°C2 mph, S97%10000m1016hPa99%
20-Jun-2024 15:00Overcast Clouds16°C2 mph, SW100%4422m1015hPa100%
20-Jun-2024 18:00Overcast Clouds16°C2 mph, SW100%4874m1014hPa99%
20-Jun-2024 21:00Overcast Clouds16°C2 mph, SW100%6901m1015hPa99%
21-Jun-2024 00:00Overcast Clouds20°C2 mph, S100%10000m1015hPa83%
21-Jun-2024 03:00Light Rain22°C2 mph, E100%5437m1012hPa80%
21-Jun-2024 06:00Moderate Rain18°C2 mph, NE100%1129m1012hPa98%
21-Jun-2024 09:00Light Rain17°C2 mph, E95%10000m1015hPa99%
21-Jun-2024 12:00Light Rain15°C2 mph, S95%10000m1017hPa99%
21-Jun-2024 15:00Overcast Clouds15°C2 mph, SW100%5153m1016hPa99%
21-Jun-2024 18:00Overcast Clouds15°C2 mph, SW100%10000m1016hPa99%
21-Jun-2024 21:00Overcast Clouds16°C2 mph, SW100%10000m1016hPa98%
22-Jun-2024 00:00Overcast Clouds19°C2 mph, S100%10000m1016hPa85%
22-Jun-2024 03:00Light Rain24°C4 mph, NE98%10000m1012hPa63%